Time;durP1;ratioP1;P1;durP2;ratioP2;P2;SDS_P1;SDS_P2;PMS_P1;PMS_P2;Temp;Humidity;BMP_temperature;BMP_pressure;BME280_temperature;BME280_humidity;BME280_pressure;Samples;Min_cycle;Max_cycle;Signal;HPM_P1;HPM_P2
2022/08/06 00:00:05;;;;;;;3.20;1.05;;;;;;;16.40;68.88;101417.88;5091688;28;20428;-71
2022/08/06 00:03:15;;;;;;;4.03;0.88;;;;;;;16.26;69.15;101413.47;5091811;28;20035;-71
2022/08/06 00:06:18;;;;;;;3.63;1.15;;;;;;;16.21;68.52;101412.94;5091921;28;20047;-71
2022/08/06 00:09:21;;;;;;;3.78;0.75;;;;;;;16.22;69.11;101417.25;5091337;28;20051;-71
2022/08/06 00:12:25;;;;;;;3.22;1.13;;;;;;;15.92;70.29;101410.28;5091821;28;20043;-71
2022/08/06 00:15:28;;;;;;;4.25;1.10;;;;;;;16.03;70.00;101413.09;5092120;28;20059;-71
2022/08/06 00:18:31;;;;;;;5.05;1.20;;;;;;;16.17;68.78;101416.66;5091956;28;20043;-71
2022/08/06 00:21:34;;;;;;;2.97;1.27;;;;;;;15.84;70.03;101419.59;5091584;28;20135;-71
2022/08/06 00:24:38;;;;;;;2.85;1.00;;;;;;;15.63;70.82;101426.94;5091131;28;20066;-71
2022/08/06 00:27:41;;;;;;;4.13;1.08;;;;;;;15.71;70.89;101427.38;5091225;28;20539;-71
2022/08/06 00:30:45;;;;;;;8.60;1.90;;;;;;;15.45;71.74;101421.81;5091322;28;20409;-71
2022/08/06 00:33:48;;;;;;;3.25;1.05;;;;;;;15.40;72.09;101423.88;5090461;28;20090;-70
2022/08/06 00:36:51;;;;;;;5.45;1.30;;;;;;;15.60;71.42;101427.97;5091446;28;20055;-70
2022/08/06 00:39:55;;;;;;;4.90;0.93;;;;;;;15.55;71.18;101430.03;5091529;28;20109;-70
2022/08/06 00:43:00;;;;;;;3.92;0.90;;;;;;;15.74;70.23;101433.31;5090827;28;20157;-70
2022/08/06 00:46:03;;;;;;;7.90;1.20;;;;;;;15.81;69.78;101436.44;5090750;28;20055;-70
2022/08/06 00:49:07;;;;;;;3.20;1.10;;;;;;;15.92;69.48;101434.00;5090643;28;20131;-70
2022/08/06 00:52:10;;;;;;;5.53;1.42;;;;;;;15.52;71.13;101444.25;5091190;28;20558;-70
2022/08/06 00:55:13;;;;;;;3.63;1.23;;;;;;;15.56;71.39;101451.03;5091049;28;20129;-70
2022/08/06 00:58:17;;;;;;;3.65;0.80;;;;;;;15.64;70.86;101455.03;5090955;28;20698;-70
2022/08/06 01:01:20;;;;;;;14.02;1.58;;;;;;;15.56;70.61;101453.66;5090578;28;20654;-70
2022/08/06 01:04:23;;;;;;;3.53;1.20;;;;;;;15.17;71.76;101458.59;5078169;28;20554;-71
2022/08/06 01:07:27;;;;;;;3.95;1.30;;;;;;;15.24;71.86;101468.69;5090403;28;20463;-70
2022/08/06 01:10:30;;;;;;;3.42;1.00;;;;;;;15.40;70.60;101467.81;5078418;28;20055;-71
2022/08/06 01:13:34;;;;;;;2.22;0.85;;;;;;;15.51;70.40;101466.28;5090788;28;20043;-70
2022/08/06 01:16:37;;;;;;;4.53;1.15;;;;;;;15.50;70.42;101480.38;5090122;28;20655;-70
2022/08/06 01:20:06;;;;;;;2.20;0.88;;;;;;;15.31;70.61;101485.84;5089932;28;20043;-70
2022/08/06 01:23:45;;;;;;;3.60;1.10;;;;;;;15.47;69.61;101482.34;5090424;28;20116;-71
2022/08/06 01:27:14;;;;;;;3.75;1.30;;;;;;;15.51;69.76;101484.72;5090041;28;20092;-70
2022/08/06 01:30:20;;;;;;;5.78;1.25;;;;;;;15.32;70.22;101489.34;5090611;28;20071;-70
2022/08/06 01:33:30;;;;;;;4.93;1.13;;;;;;;15.17;70.74;101487.56;5089904;28;20034;-71
2022/08/06 01:36:42;;;;;;;5.00;1.20;;;;;;;15.19;70.52;101490.97;5089857;28;20084;-71
2022/08/06 01:39:50;;;;;;;4.82;1.10;;;;;;;15.24;69.81;101502.09;5090546;28;20555;-70
2022/08/06 01:42:55;;;;;;;4.63;0.88;;;;;;;15.29;69.77;101497.44;5089965;28;20253;-70
2022/08/06 01:46:00;;;;;;;7.47;1.85;;;;;;;15.06;70.69;101515.38;5089739;28;20051;-70
2022/08/06 01:49:06;;;;;;;3.70;1.20;;;;;;;14.91;71.08;101518.00;5089355;28;20051;-70
2022/08/06 01:52:11;;;;;;;3.40;0.80;;;;;;;14.78;71.63;101523.09;5089418;28;20047;-71
2022/08/06 01:55:17;;;;;;;5.72;1.48;;;;;;;14.88;70.96;101519.84;5089654;28;20074;-72
2022/08/06 01:58:28;;;;;;;5.38;0.80;;;;;;;14.96;69.90;101527.31;5089565;28;20636;-71
2022/08/06 02:01:35;;;;;;;2.67;0.98;;;;;;;15.13;69.88;101529.06;5089369;28;20054;-72
2022/08/06 02:04:41;;;;;;;2.80;0.85;;;;;;;15.01;69.87;101525.31;5083019;28;20098;-71
2022/08/06 02:07:49;;;;;;;2.10;0.82;;;;;;;14.94;70.44;101528.38;5069063;28;20485;-71
2022/08/06 02:10:54;;;;;;;3.13;1.10;;;;;;;14.72;70.76;101531.31;5069153;28;20048;-71
2022/08/06 02:14:00;;;;;;;3.95;1.00;;;;;;;14.94;70.53;101531.84;5069408;28;20067;-71
2022/08/06 02:17:05;;;;;;;6.25;1.60;;;;;;;14.88;70.60;101543.56;5069489;28;20078;-71
2022/08/06 02:20:10;;;;;;;4.50;1.00;;;;;;;14.42;72.10;101550.34;5069264;28;20052;-70
2022/08/06 02:23:18;;;;;;;3.55;1.00;;;;;;;14.41;72.32;101551.31;5069091;28;20525;-70
2022/08/06 02:26:23;;;;;;;4.15;1.85;;;;;;;14.49;71.55;101549.13;5069308;28;20593;-70
2022/08/06 02:29:29;;;;;;;2.25;1.00;;;;;;;14.22;71.59;101555.81;5068798;28;20051;-70
2022/08/06 02:32:33;;;;;;;4.40;1.25;;;;;;;14.30;71.52;101551.03;5068522;28;20048;-70
2022/08/06 02:36:02;;;;;;;6.47;0.82;;;;;;;14.68;70.82;101551.69;5068812;28;20512;-71
2022/08/06 02:39:15;;;;;;;1.80;0.77;;;;;;;14.56;71.30;101552.31;5068747;28;20043;-70
2022/08/06 02:42:35;;;;;;;3.35;0.80;;;;;;;14.44;70.82;101553.78;5068559;28;20052;-71
2022/08/06 02:45:58;;;;;;;5.13;1.00;;;;;;;14.44;70.93;101564.31;5056225;28;20094;-70
2022/08/06 02:49:09;;;;;;;2.60;0.93;;;;;;;14.16;71.91;101570.13;5068769;28;20051;-70
2022/08/06 02:52:25;;;;;;;3.53;1.00;;;;;;;14.24;72.14;101561.84;5068339;28;20043;-70
2022/08/06 02:55:33;;;;;;;2.08;1.00;;;;;;;14.27;72.00;101559.06;5067969;28;20055;-70
2022/08/06 02:58:43;;;;;;;2.13;0.80;;;;;;;13.98;72.95;101564.03;5068470;28;20051;-70
2022/08/06 03:01:56;;;;;;;5.82;1.10;;;;;;;13.81;73.70;101564.84;5068262;28;20464;-70
2022/08/06 03:05:02;;;;;;;5.45;1.60;;;;;;;13.77;74.14;101570.34;5068309;28;20039;-70
2022/08/06 03:08:09;;;;;;;5.00;1.10;;;;;;;13.95;73.36;101577.31;5055817;28;20127;-70
2022/08/06 03:11:15;;;;;;;2.88;1.20;;;;;;;13.89;73.37;101580.25;5068432;28;20035;-70
2022/08/06 03:14:21;;;;;;;2.20;0.80;;;;;;;13.93;72.76;101581.78;5068336;28;20044;-72
2022/08/06 03:17:26;;;;;;;5.90;0.90;;;;;;;14.00;72.69;101577.94;5068642;28;20132;-70
2022/08/06 03:20:31;;;;;;;2.28;1.10;;;;;;;14.12;71.06;101585.22;5068370;28;20059;-70
2022/08/06 03:23:34;;;;;;;5.65;0.80;;;;;;;14.01;71.71;101584.91;5068697;28;20048;-71
2022/08/06 03:26:40;;;;;;;2.20;0.90;;;;;;;13.81;72.57;101588.50;5068504;28;20043;-70
2022/08/06 03:29:44;;;;;;;4.45;1.27;;;;;;;13.77;72.83;101596.63;5068197;28;20047;-70
2022/08/06 03:32:48;;;;;;;2.80;0.88;;;;;;;13.84;72.72;101592.75;5067956;28;20071;-71
2022/08/06 03:35:57;;;;;;;4.30;0.95;;;;;;;14.42;70.77;101595.97;5068063;28;20601;-70
2022/08/06 03:39:05;;;;;;;3.53;0.90;;;;;;;14.46;71.06;101599.28;5067970;28;20520;-70
2022/08/06 03:42:08;;;;;;;2.42;0.95;;;;;;;14.07;71.84;101600.38;5068120;28;20094;-70
2022/08/06 03:45:11;;;;;;;4.55;1.05;;;;;;;13.83;72.74;101597.16;5068347;28;20102;-71
2022/08/06 03:48:19;;;;;;;6.63;1.40;;;;;;;13.84;73.14;101598.00;5068646;28;20218;-70
2022/08/06 03:51:26;;;;;;;2.80;0.95;;;;;;;13.71;73.36;101598.59;5068559;28;20051;-70
2022/08/06 03:54:35;;;;;;;2.83;1.02;;;;;;;13.72;73.07;101595.06;5068240;28;20047;-70
2022/08/06 03:57:43;;;;;;;3.15;1.30;;;;;;;13.81;72.72;101598.16;5056299;28;20047;-70
2022/08/06 04:00:51;;;;;;;4.40;1.15;;;;;;;13.77;73.01;101602.72;5068018;28;20101;-70
2022/08/06 04:03:55;;;;;;;4.05;1.73;;;;;;;13.82;73.21;101599.88;5067170;28;20707;-71
2022/08/06 04:07:01;;;;;;;4.13;1.50;;;;;;;13.80;73.54;101602.56;5067963;28;20071;-71
2022/08/06 04:10:04;;;;;;;7.88;1.77;;;;;;;13.92;73.04;101604.63;5071616;28;20066;-70
2022/08/06 04:13:10;;;;;;;7.40;2.03;;;;;;;13.73;73.67;101612.53;5071328;28;20558;-71
2022/08/06 04:16:14;;;;;;;4.28;2.30;;;;;;;13.70;74.24;101623.19;5071273;28;20052;-71
2022/08/06 04:19:18;;;;;;;6.63;2.85;;;;;;;13.55;74.98;101623.91;5070700;28;20038;-70
2022/08/06 04:22:22;;;;;;;4.07;2.05;;;;;;;13.47;75.43;101623.44;5071800;28;20118;-71
2022/08/06 04:25:28;;;;;;;6.72;1.92;;;;;;;13.43;75.76;101624.50;5071601;28;20079;-71
2022/08/06 04:28:36;;;;;;;6.30;2.65;;;;;;;13.76;74.65;101627.31;5070868;28;20576;-70
2022/08/06 04:31:40;;;;;;;4.13;2.08;;;;;;;13.82;74.33;101628.81;5070405;28;20058;-70
2022/08/06 04:34:45;;;;;;;4.10;1.77;;;;;;;13.72;74.49;101631.88;5069725;28;20082;-71
2022/08/06 04:37:49;;;;;;;3.92;2.10;;;;;;;13.88;73.47;101629.34;5069895;28;20162;-70
2022/08/06 04:40:53;;;;;;;5.60;2.25;;;;;;;13.94;73.80;101626.44;5088060;28;20078;-67
2022/08/06 04:43:57;;;;;;;5.03;1.70;;;;;;;13.55;75.02;101633.59;5089993;28;20043;-66
2022/08/06 04:47:01;;;;;;;4.00;1.83;;;;;;;13.85;74.64;101641.81;5090448;28;20132;-66
2022/08/06 04:50:04;;;;;;;5.82;2.10;;;;;;;13.67;75.33;101639.13;5090117;28;20138;-66
2022/08/06 04:53:10;;;;;;;3.70;1.67;;;;;;;13.55;75.88;101644.09;5089462;28;20277;-66
2022/08/06 04:56:14;;;;;;;4.05;2.20;;;;;;;13.64;75.28;101643.66;5089558;28;20090;-65
2022/08/06 04:59:17;;;;;;;2.92;1.50;;;;;;;13.86;74.70;101649.59;5088927;28;20110;-66
2022/08/06 05:02:20;;;;;;;3.13;1.90;;;;;;;13.77;75.17;101649.19;5088998;28;20051;-65
2022/08/06 05:05:24;;;;;;;4.20;1.80;;;;;;;13.75;75.23;101654.50;5090154;28;20046;-65
2022/08/06 05:08:30;;;;;;;7.13;1.98;;;;;;;14.07;73.48;101663.50;5089923;28;20051;-65
2022/08/06 05:11:40;;;;;;;4.35;1.92;;;;;;;14.11;73.19;101662.41;5088097;28;20051;-65
2022/08/06 05:15:02;;;;;;;4.85;1.67;;;;;;;13.83;74.48;101672.56;5090065;28;20034;-65
2022/08/06 05:18:13;;;;;;;3.50;1.88;;;;;;;13.72;75.28;101662.56;5088782;28;20043;-65
2022/08/06 05:21:28;;;;;;;6.05;1.70;;;;;;;13.84;74.74;101661.97;5088728;28;20050;-64
2022/08/06 05:24:32;;;;;;;5.20;1.90;;;;;;;14.08;74.18;101661.72;5088527;28;20047;-66
2022/08/06 05:27:35;;;;;;;4.45;1.83;;;;;;;14.00;74.51;101671.75;5088821;28;20100;-67
2022/08/06 05:30:46;;;;;;;4.65;1.77;;;;;;;13.92;74.89;101674.75;5088890;28;20125;-65
2022/08/06 05:33:50;;;;;;;4.28;1.98;;;;;;;14.06;75.12;101668.81;5088286;28;20039;-67
2022/08/06 05:36:53;;;;;;;4.60;2.78;;;;;;;14.28;73.48;101664.22;5089322;28;20461;-64
2022/08/06 05:39:57;;;;;;;3.30;1.90;;;;;;;13.77;75.82;101670.22;5089400;28;20047;-64
2022/08/06 05:43:00;;;;;;;;;;;;;;;14.13;74.60;101671.06;5089201;28;20077;-65
2022/08/06 05:46:12;;;;;;;4.85;2.05;;;;;;;14.31;74.03;101668.47;5088794;28;20363;-65
2022/08/06 05:49:21;;;;;;;5.30;1.88;;;;;;;14.37;73.09;101665.53;5088328;28;20054;-64
2022/08/06 05:52:29;;;;;;;4.95;2.00;;;;;;;14.36;73.55;101669.09;5088597;28;20120;-65
2022/08/06 05:55:48;;;;;;;3.72;1.98;;;;;;;14.45;73.09;101679.16;4717421;28;10000070;-65
2022/08/06 05:59:18;;;;;;;8.32;1.50;;;;;;;14.51;73.24;101681.50;5068560;28;20043;-63
2022/08/06 06:02:23;;;;;;;5.80;1.35;;;;;;;14.62;72.63;101684.47;5068205;28;20124;-64
2022/08/06 06:05:26;;;;;;;4.03;1.30;;;;;;;14.67;72.98;101678.09;5067450;28;20067;-64
2022/08/06 06:08:30;;;;;;;3.58;1.75;;;;;;;14.83;72.21;101679.84;5067541;28;20098;-63
2022/08/06 06:11:34;;;;;;;6.60;2.95;;;;;;;14.90;72.65;101688.31;5067413;28;20413;-64
2022/08/06 06:14:41;;;;;;;4.60;1.60;;;;;;;14.94;72.44;101687.22;5067924;28;20090;-64
2022/08/06 06:18:00;;;;;;;4.68;1.42;;;;;;;15.10;72.02;101688.13;5068057;28;20106;-65
2022/08/06 06:21:21;;;;;;;3.05;1.40;;;;;;;14.97;73.18;101692.34;5082455;28;20051;-67
2022/08/06 06:24:41;;;;;;;3.80;1.45;;;;;;;15.21;72.77;101694.59;5088231;28;20106;-66
2022/08/06 06:27:51;;;;;;;2.83;1.13;;;;;;;15.28;72.04;101682.78;5088523;28;20508;-63
2022/08/06 06:31:15;;;;;;;4.25;1.05;;;;;;;15.45;71.77;101684.53;5088179;28;20105;-65
2022/08/06 06:34:57;;;;;;;4.90;1.30;;;;;;;15.45;71.24;101688.03;5088002;28;20034;-66
2022/08/06 06:38:36;;;;;;;2.88;0.98;;;;;;;15.56;70.54;101690.91;5088999;28;20533;-65
2022/08/06 06:41:45;;;;;;;2.33;1.00;;;;;;;15.59;71.36;101689.91;5076203;28;20185;-65
2022/08/06 06:45:16;;;;;;;2.50;0.90;;;;;;;15.73;69.30;101675.97;5088871;28;20043;-65
2022/08/06 06:48:39;;;;;;;3.85;0.98;;;;;;;15.92;68.67;101671.41;5089178;28;20602;-66
2022/08/06 06:51:58;;;;;;;4.35;0.82;;;;;;;16.02;68.63;101688.41;5089751;28;20046;-65
2022/08/06 06:55:11;;;;;;;4.88;0.85;;;;;;;16.06;67.72;101682.94;5090550;28;20050;-65
2022/08/06 06:58:36;;;;;;;5.07;0.88;;;;;;;16.29;67.35;101677.19;5091400;28;20101;-65
2022/08/06 07:01:41;;;;;;;4.22;1.05;;;;;;;16.32;67.23;101682.28;5091938;28;20572;-65
2022/08/06 07:04:47;;;;;;;2.65;1.05;;;;;;;16.56;66.93;101692.34;4738800;28;9999947;-64
2022/08/06 07:07:51;;;;;;;2.15;0.70;;;;;;;16.73;65.40;101689.56;5079893;28;20066;-64
2022/08/06 07:10:57;;;;;;;2.17;0.63;;;;;;;16.87;64.37;101681.69;5077974;28;20040;-65
2022/08/06 07:14:02;;;;;;;4.43;0.50;;;;;;;17.02;63.48;101684.38;5091903;28;20039;-66
2022/08/06 07:17:07;;;;;;;4.28;0.70;;;;;;;17.01;61.86;101685.31;5069988;28;20095;-66
2022/08/06 07:20:12;;;;;;;4.80;1.17;;;;;;;17.20;62.02;101677.97;5055757;28;20169;-64
2022/08/06 07:23:16;;;;;;;5.28;0.73;;;;;;;17.13;58.41;101679.25;5068961;28;20035;-69
2022/08/06 07:26:22;;;;;;;3.38;0.75;;;;;;;17.12;58.18;101680.22;5071279;28;20043;-65
2022/08/06 07:29:26;;;;;;;3.38;0.70;;;;;;;17.08;58.72;101684.84;5071128;28;20055;-66
2022/08/06 07:32:31;;;;;;;10.20;1.20;;;;;;;17.24;59.04;101689.19;5069817;28;20508;-65
2022/08/06 07:35:35;;;;;;;2.30;0.82;;;;;;;17.47;57.70;101690.41;5071647;28;20086;-65
2022/08/06 07:38:41;;;;;;;7.50;0.80;;;;;;;17.41;57.09;101686.34;5071600;28;20044;-66
2022/08/06 07:41:47;;;;;;;4.45;0.80;;;;;;;17.62;58.18;101694.72;5072124;28;20055;-67
2022/08/06 07:44:53;;;;;;;4.85;0.85;;;;;;;17.80;57.59;101693.56;5075119;28;20098;-66
2022/08/06 07:47:57;;;;;;;3.13;1.02;;;;;;;17.97;56.80;101692.50;5075042;28;20464;-66
2022/08/06 07:51:03;;;;;;;3.10;0.60;;;;;;;18.03;55.80;101688.63;5074804;28;20412;-66
2022/08/06 07:54:08;;;;;;;5.60;0.80;;;;;;;18.17;56.06;101690.34;5074046;28;20160;-67
2022/08/06 07:57:13;;;;;;;5.18;0.60;;;;;;;18.14;56.21;101696.69;5074556;28;20051;-66
2022/08/06 08:00:17;;;;;;;3.28;0.65;;;;;;;18.25;55.01;101682.72;5074917;28;20059;-67
2022/08/06 08:06:43;;;;;;;4.03;0.55;;;;;;;18.36;52.86;101686.38;5091380;28;20582;-65
2022/08/06 08:09:48;;;;;;;2.03;0.40;;;;;;;18.09;52.57;101694.34;5091593;28;20070;-65
2022/08/06 08:12:51;;;;;;;4.07;0.70;;;;;;;17.93;52.76;101692.78;5092163;28;20083;-72
2022/08/06 08:15:55;;;;;;;4.50;0.70;;;;;;;17.82;54.47;101689.03;5092985;28;20075;-70
2022/08/06 08:18:58;;;;;;;3.55;0.85;;;;;;;17.74;53.45;101687.78;5093403;28;20039;-70
2022/08/06 08:22:05;;;;;;;2.60;0.57;;;;;;;17.67;53.99;101690.81;5088419;28;20108;-70
2022/08/06 08:25:09;;;;;;;2.88;0.60;;;;;;;17.90;53.82;101691.19;5091738;28;20413;-69
2022/08/06 08:28:12;;;;;;;4.85;0.70;;;;;;;17.94;52.68;101690.03;5090882;28;20117;-69
2022/08/06 08:31:15;;;;;;;4.32;0.60;;;;;;;17.97;53.33;101681.06;5091892;28;20160;-71
2022/08/06 08:34:18;;;;;;;4.38;1.02;;;;;;;18.01;53.29;101691.34;5089269;28;20086;-67
2022/08/06 08:37:22;;;;;;;3.60;0.65;;;;;;;18.02;53.25;101684.25;5091291;28;20516;-65
2022/08/06 08:40:28;;;;;;;3.10;0.60;;;;;;;18.07;51.26;101679.50;5091713;28;20051;-65
2022/08/06 08:43:43;;;;;;;3.90;0.60;;;;;;;18.22;51.82;101674.97;5092371;28;20038;-64
2022/08/06 08:46:48;;;;;;;4.28;0.80;;;;;;;18.35;51.08;101674.09;5092260;28;20090;-65
2022/08/06 08:49:56;;;;;;;4.13;0.50;;;;;;;18.58;50.15;101671.69;5092065;28;20077;-71
2022/08/06 08:53:13;;;;;;;4.38;0.73;;;;;;;18.74;48.60;101674.19;5091466;28;20043;-69
2022/08/06 08:56:20;;;;;;;3.65;0.70;;;;;;;18.93;48.14;101669.31;5093250;28;20173;-69
2022/08/06 08:59:24;;;;;;;2.47;0.85;;;;;;;18.94;47.19;101671.00;5092636;28;20512;-69
2022/08/06 09:02:27;;;;;;;3.20;0.63;;;;;;;18.93;46.51;101669.31;5093926;28;20105;-69
2022/08/06 09:05:31;;;;;;;5.82;0.88;;;;;;;19.12;46.71;101674.19;5093009;28;20306;-69
2022/08/06 09:08:36;;;;;;;3.42;0.63;;;;;;;19.14;46.21;101668.75;5093774;28;20535;-69
2022/08/06 09:11:39;;;;;;;4.60;0.60;;;;;;;19.33;46.54;101670.94;5093788;28;20069;-69
2022/08/06 09:14:45;;;;;;;3.05;0.60;;;;;;;19.46;46.58;101672.66;5093539;28;20085;-69
2022/08/06 09:17:49;;;;;;;2.22;0.55;;;;;;;19.47;46.60;101669.03;5093973;28;20055;-69
2022/08/06 09:21:43;;;;;;;3.53;0.70;;;;;;;19.51;45.29;101665.19;5093129;28;20078;-70
2022/08/06 09:24:46;;;;;;;2.80;0.55;;;;;;;19.38;44.69;101672.34;5091750;28;20062;-70
2022/08/06 09:27:49;;;;;;;3.90;0.80;;;;;;;19.42;46.07;101665.00;5091764;28;20206;-70
2022/08/06 09:31:01;;;;;;;2.78;0.68;;;;;;;19.59;44.75;101659.34;5092537;28;20424;-70
2022/08/06 09:34:06;;;;;;;2.10;0.50;;;;;;;19.78;45.00;101665.97;5092136;28;20404;-70
2022/08/06 09:37:09;;;;;;;3.67;0.60;;;;;;;19.94;44.78;101670.06;5092832;28;20047;-70
2022/08/06 09:40:15;;;;;;;1.77;0.40;;;;;;;20.10;44.30;101661.81;5093535;28;20463;-70
2022/08/06 09:43:27;;;;;;;9.02;0.70;;;;;;;20.17;42.04;101668.38;5086866;28;20511;-73
2022/08/06 09:46:41;;;;;;;3.83;1.15;;;;;;;20.21;42.59;101664.50;5088471;28;20113;-71
2022/08/06 09:49:44;;;;;;;2.70;0.60;;;;;;;20.15;42.54;101670.28;5088337;28;20051;-70
2022/08/06 09:53:01;;;;;;;3.85;0.70;;;;;;;20.35;43.55;101663.47;5088563;28;20035;-70
2022/08/06 09:56:15;;;;;;;2.00;0.52;;;;;;;20.40;41.99;101657.81;5087877;28;20101;-70
2022/08/06 09:59:18;;;;;;;2.90;0.52;;;;;;;20.33;41.81;101654.78;5088450;28;20089;-70
2022/08/06 10:02:22;;;;;;;4.10;0.55;;;;;;;20.23;41.00;101653.78;5088111;28;20100;-70
2022/08/06 10:05:26;;;;;;;2.58;0.60;;;;;;;20.09;40.93;101649.50;5087685;28;20084;-70
2022/08/06 10:08:29;;;;;;;3.60;0.55;;;;;;;20.11;39.40;101657.34;5088464;28;20047;-70
2022/08/06 10:11:35;;;;;;;2.38;0.50;;;;;;;20.18;39.48;101645.31;5088675;28;20075;-70
2022/08/06 10:14:38;;;;;;;2.95;0.57;;;;;;;20.41;37.89;101633.78;5088395;28;20039;-70
2022/08/06 10:17:45;;;;;;;2.70;0.40;;;;;;;20.37;38.50;101631.47;5087794;28;20093;-70
2022/08/06 10:21:09;;;;;;;1.73;0.28;;;;;;;20.53;39.51;101641.81;5087684;28;20100;-70
2022/08/06 10:24:15;;;;;;;4.50;0.40;;;;;;;20.24;38.05;101636.03;5088410;28;20112;-70
2022/08/06 10:27:28;;;;;;;2.10;0.40;;;;;;;20.38;38.90;101633.16;5075507;28;20046;-70
2022/08/06 10:30:31;;;;;;;1.83;0.30;;;;;;;20.36;38.24;101635.94;5067828;28;20046;-70
2022/08/06 10:33:49;;;;;;;4.35;0.63;;;;;;;20.39;40.28;101632.22;5068090;28;20058;-70
2022/08/06 10:37:02;;;;;;;5.43;0.73;;;;;;;20.23;38.04;101629.88;5067100;28;20113;-70
2022/08/06 10:40:09;;;;;;;2.17;0.40;;;;;;;19.99;38.04;101621.94;5067207;28;20043;-71
2022/08/06 10:43:13;;;;;;;6.72;0.43;;;;;;;20.27;38.46;101625.19;5067020;28;20072;-72
2022/08/06 10:46:16;;;;;;;4.82;0.50;;;;;;;20.47;38.95;101627.16;5080129;28;20046;-70
2022/08/06 10:49:22;;;;;;;3.88;0.40;;;;;;;20.68;38.30;101619.38;5087853;28;20494;-70
2022/08/06 10:52:26;;;;;;;1.45;0.40;;;;;;;20.66;37.87;101608.84;5087921;28;20104;-70
2022/08/06 10:55:30;;;;;;;2.00;0.52;;;;;;;20.78;38.27;101609.72;5087701;28;20046;-70
2022/08/06 10:58:35;;;;;;;3.00;0.60;;;;;;;20.65;36.94;101609.84;5087557;28;20519;-70
2022/08/06 11:01:53;;;;;;;2.10;0.40;;;;;;;20.72;37.36;101610.19;5074643;28;20051;-70
2022/08/06 11:05:08;;;;;;;1.48;0.30;;;;;;;20.95;37.12;101599.56;5088028;28;20120;-70
2022/08/06 11:08:36;;;;;;;4.15;0.30;;;;;;;21.04;36.86;101605.00;5087758;28;20396;-70
2022/08/06 11:12:18;;;;;;;1.67;0.30;;;;;;;21.18;36.94;101606.56;5086780;28;20050;-71
2022/08/06 11:15:22;;;;;;;2.33;0.40;;;;;;;20.90;36.04;101602.59;5005964;28;20049;-70
2022/08/06 11:18:26;;;;;;;1.73;0.32;;;;;;;20.82;36.12;101597.88;5009085;28;20125;-70
2022/08/06 11:21:44;;;;;;;2.72;0.40;;;;;;;20.87;36.61;101608.16;5091982;28;20105;-71
2022/08/06 11:24:51;;;;;;;2.72;0.40;;;;;;;20.93;37.66;101585.53;5090574;28;20066;-70
2022/08/06 11:27:56;;;;;;;1.73;0.40;;;;;;;20.90;37.53;101586.66;5089118;28;20047;-70
2022/08/06 11:31:02;;;;;;;3.33;0.30;;;;;;;21.11;36.99;101598.22;5091270;28;20042;-70
2022/08/06 11:34:13;;;;;;;1.02;0.22;;;;;;;21.21;36.57;101595.66;5090909;28;20040;-70
2022/08/06 11:37:43;;;;;;;4.20;0.68;;;;;;;21.16;36.19;101589.06;5091790;28;20062;-70
2022/08/06 11:40:54;;;;;;;2.70;0.63;;;;;;;20.80;36.72;101585.66;5092277;28;20078;-70
2022/08/06 11:43:57;;;;;;;6.47;0.85;;;;;;;21.09;36.94;101580.69;5092241;28;20140;-70
2022/08/06 11:47:14;;;;;;;3.47;0.40;;;;;;;21.45;36.17;101574.25;5092412;28;20043;-70
2022/08/06 11:50:24;;;;;;;2.10;0.50;;;;;;;21.87;36.43;101573.50;5091717;28;20105;-70
2022/08/06 11:53:37;;;;;;;3.05;0.65;;;;;;;22.16;35.29;101571.09;5091648;28;20039;-71
2022/08/06 11:57:02;;;;;;;2.28;0.50;;;;;;;22.22;34.36;101567.91;5091572;28;20135;-70
2022/08/06 12:00:09;;;;;;;2.70;0.50;;;;;;;22.40;33.03;101565.47;5092221;28;20189;-70
2022/08/06 12:03:36;;;;;;;1.75;0.40;;;;;;;22.54;33.00;101573.13;5091912;28;20409;-70
2022/08/06 12:06:39;;;;;;;2.30;0.50;;;;;;;22.59;32.52;101567.41;5091280;28;20051;-70
2022/08/06 12:09:43;;;;;;;1.25;0.38;;;;;;;22.52;32.88;101556.41;5090553;28;20054;-71
2022/08/06 12:12:48;;;;;;;2.80;0.40;;;;;;;22.63;33.20;101551.00;5091133;28;20558;-71
2022/08/06 12:15:51;;;;;;;2.42;0.60;;;;;;;22.77;32.40;101563.13;5078445;28;20089;-70
2022/08/06 12:18:55;;;;;;;3.22;0.50;;;;;;;22.75;31.89;101559.78;5078844;28;20105;-70
2022/08/06 12:21:59;;;;;;;1.85;0.38;;;;;;;22.57;32.36;101556.03;5091258;28;20150;-70
2022/08/06 12:25:06;;;;;;;1.73;0.43;;;;;;;22.10;33.20;101558.25;5091453;28;20081;-70
2022/08/06 12:28:10;;;;;;;2.38;0.45;;;;;;;22.06;34.34;101550.53;5089576;28;20051;-70
2022/08/06 12:31:26;;;;;;;2.88;0.57;;;;;;;22.41;32.35;101545.84;5078503;28;20089;-70
2022/08/06 12:34:30;;;;;;;1.85;0.30;;;;;;;22.60;33.25;101540.63;5078356;28;20059;-70
2022/08/06 12:37:43;;;;;;;2.53;0.30;;;;;;;22.87;32.22;101536.50;5090750;28;20047;-71
2022/08/06 12:40:55;;;;;;;2.03;0.10;;;;;;;23.45;31.87;101533.97;5091017;28;20046;-70
2022/08/06 12:43:58;;;;;;;4.38;0.60;;;;;;;23.84;31.10;101534.84;5091012;28;20134;-70
2022/08/06 12:47:12;;;;;;;1.88;0.35;;;;;;;23.91;30.61;101527.13;5090674;28;20047;-70
2022/08/06 12:50:19;;;;;;;4.10;0.68;;;;;;;24.28;29.18;101527.19;5090693;28;20658;-70
2022/08/06 12:53:23;;;;;;;2.50;0.30;;;;;;;24.35;28.54;101524.78;5089906;28;20114;-70
2022/08/06 12:56:28;;;;;;;1.52;0.20;;;;;;;24.56;27.89;101528.09;5090489;28;20046;-70
2022/08/06 12:59:33;;;;;;;3.13;0.57;;;;;;;25.09;28.22;101520.38;5090809;28;20066;-71
2022/08/06 13:02:36;;;;;;;2.67;0.35;;;;;;;25.55;27.88;101516.66;5089588;28;20043;-70
2022/08/06 13:05:42;;;;;;;2.00;0.30;;;;;;;25.71;26.84;101519.47;5091466;28;20108;-70
2022/08/06 13:08:47;;;;;;;2.08;0.30;;;;;;;26.16;26.49;101507.78;5090848;28;20058;-70
2022/08/06 13:11:51;;;;;;;2.22;0.70;;;;;;;26.27;26.20;101505.84;5091104;28;20043;-70
2022/08/06 13:14:57;;;;;;;3.00;0.50;;;;;;;26.65;25.65;101509.91;5090392;28;20456;-70
2022/08/06 13:18:17;;;;;;;2.10;0.45;;;;;;;26.74;24.71;101505.38;5090118;28;20123;-70
2022/08/06 13:21:24;;;;;;;2.22;0.63;;;;;;;26.26;25.72;101506.81;5090634;28;20082;-70
2022/08/06 13:24:28;;;;;;;2.05;0.32;;;;;;;26.19;26.02;101499.41;5090679;28;20521;-70
2022/08/06 13:27:32;;;;;;;1.25;0.40;;;;;;;26.61;25.29;101495.13;5090188;28;20043;-70
2022/08/06 13:30:35;;;;;;;1.75;0.35;;;;;;;27.31;24.82;101486.75;5090245;28;20467;-70
2022/08/06 13:33:39;;;;;;;0.65;0.30;;;;;;;26.38;25.77;101489.44;5089770;28;20050;-70
2022/08/06 13:36:51;;;;;;;1.70;0.50;;;;;;;27.54;23.96;101485.13;5089854;28;20689;-70
2022/08/06 13:39:55;;;;;;;1.10;0.30;;;;;;;27.14;24.95;101483.22;5076814;28;20670;-70
2022/08/06 13:42:58;;;;;;;3.20;0.50;;;;;;;25.98;25.48;101489.06;5089462;28;20429;-70
2022/08/06 13:46:10;;;;;;;2.60;0.85;;;;;;;27.46;23.10;101479.72;5090248;28;20047;-70
2022/08/06 13:49:14;;;;;;;3.90;0.40;;;;;;;28.34;23.00;101478.13;5089962;28;20046;-70
2022/08/06 13:52:17;;;;;;;3.78;0.55;;;;;;;29.07;21.64;101471.56;5089988;28;20104;-70
2022/08/06 13:55:25;;;;;;;3.80;0.50;;;;;;;29.79;21.15;101471.16;5089880;28;20501;-70
2022/08/06 13:58:29;;;;;;;4.45;0.60;;;;;;;30.17;21.33;101457.63;5089483;28;20043;-70
2022/08/06 14:01:32;;;;;;;1.63;0.43;;;;;;;31.78;18.57;101448.34;5087923;28;20047;-71
2022/08/06 14:04:36;;;;;;;2.22;0.50;;;;;;;33.15;17.45;101469.19;5089406;28;20039;-71
2022/08/06 14:07:39;;;;;;;2.92;0.55;;;;;;;34.97;16.25;101467.56;5089278;28;20062;-71
2022/08/06 14:10:42;;;;;;;2.35;0.60;;;;;;;31.13;19.85;101472.72;5088358;28;20042;-71
2022/08/06 14:13:46;;;;;;;2.05;0.60;;;;;;;34.40;16.65;101462.84;5088665;28;20066;-71
2022/08/06 14:16:50;;;;;;;2.45;0.65;;;;;;;35.77;15.17;101462.34;5075951;28;20472;-71
2022/08/06 14:19:53;;;;;;;2.33;0.65;;;;;;;30.63;19.70;101463.63;5087566;28;20092;-69
2022/08/06 14:22:56;;;;;;;2.53;0.68;;;;;;;31.93;18.49;101459.94;5087335;28;20047;-70
2022/08/06 14:26:01;;;;;;;2.58;0.70;;;;;;;33.92;16.49;101460.47;5087578;28;20047;-71
2022/08/06 14:29:05;;;;;;;2.28;0.82;;;;;;;32.17;17.67;101455.91;5088006;28;20047;-71
2022/08/06 14:32:08;;;;;;;3.65;0.55;;;;;;;32.35;18.01;101448.06;5088492;28;20463;-72
2022/08/06 14:35:12;;;;;;;2.17;0.70;;;;;;;35.37;14.41;101446.38;5088189;28;20050;-71